sensor_id;sensor_type;location;lat;lon;timestamp;P1;durP1;ratioP1;P2;durP2;ratioP2
11135;SDS011;5622;50.840;4.948;2023-08-21T03:06:49;5.43;;;2.43;;
11135;SDS011;5622;50.840;4.948;2023-08-21T03:10:26;5.00;;;2.80;;
11135;SDS011;5622;50.840;4.948;2023-08-21T03:13:47;6.97;;;2.90;;
11135;SDS011;5622;50.840;4.948;2023-08-21T05:00:22;8.03;;;3.30;;
11135;SDS011;5622;50.840;4.948;2023-08-21T06:59:03;9.00;;;4.23;;
11135;SDS011;5622;50.840;4.948;2023-08-21T07:01:45;8.10;;;4.63;;
11135;SDS011;5622;50.840;4.948;2023-08-21T07:04:19;8.10;;;3.90;;
11135;SDS011;5622;50.840;4.948;2023-08-21T07:06:51;13.90;;;4.57;;
11135;SDS011;5622;50.840;4.948;2023-08-21T07:09:22;6.43;;;3.73;;
11135;SDS011;5622;50.840;4.948;2023-08-21T07:11:56;8.10;;;3.80;;
11135;SDS011;5622;50.840;4.948;2023-08-21T07:14:31;8.70;;;4.40;;
11135;SDS011;5622;50.840;4.948;2023-08-21T07:17:04;6.83;;;3.53;;
11135;SDS011;5622;50.840;4.948;2023-08-21T07:19:47;11.00;;;4.30;;
11135;SDS011;5622;50.840;4.948;2023-08-21T07:22:24;11.93;;;4.17;;
11135;SDS011;5622;50.840;4.948;2023-08-21T07:24:57;6.83;;;3.70;;
11135;SDS011;5622;50.840;4.948;2023-08-21T07:41:42;9.63;;;3.27;;
11135;SDS011;5622;50.840;4.948;2023-08-21T07:44:35;7.33;;;3.00;;
11135;SDS011;5622;50.840;4.948;2023-08-21T07:47:33;6.00;;;2.90;;
11135;SDS011;5622;50.840;4.948;2023-08-21T07:50:01;6.40;;;3.17;;
11135;SDS011;5622;50.840;4.948;2023-08-21T07:53:05;6.97;;;3.13;;
11135;SDS011;5622;50.840;4.948;2023-08-21T07:55:56;5.57;;;2.87;;
11135;SDS011;5622;50.840;4.948;2023-08-21T07:59:04;8.63;;;3.00;;
11135;SDS011;5622;50.840;4.948;2023-08-21T12:06:31;4.13;;;2.22;;
11135;SDS011;5622;50.840;4.948;2023-08-21T12:09:48;3.88;;;1.85;;
11135;SDS011;5622;50.840;4.948;2023-08-21T12:12:38;5.18;;;2.15;;
11135;SDS011;5622;50.840;4.948;2023-08-21T12:15:53;8.10;;;2.25;;
11135;SDS011;5622;50.840;4.948;2023-08-21T12:39:14;6.97;;;1.98;;
11135;SDS011;5622;50.840;4.948;2023-08-21T12:42:12;4.28;;;2.33;;
11135;SDS011;5622;50.840;4.948;2023-08-21T12:48:43;3.38;;;2.15;;
11135;SDS011;5622;50.840;4.948;2023-08-21T12:51:45;5.53;;;1.85;;
11135;SDS011;5622;50.840;4.948;2023-08-21T12:58:26;4.40;;;2.20;;
11135;SDS011;5622;50.840;4.948;2023-08-21T13:01:51;2.67;;;1.70;;
11135;SDS011;5622;50.840;4.948;2023-08-21T13:07:43;5.75;;;2.10;;
11135;SDS011;5622;50.840;4.948;2023-08-21T13:10:23;3.33;;;2.03;;
11135;SDS011;5622;50.840;4.948;2023-08-21T13:13:39;6.43;;;2.10;;
11135;SDS011;5622;50.840;4.948;2023-08-21T13:16:54;5.63;;;1.88;;
11135;SDS011;5622;50.840;4.948;2023-08-21T13:19:41;3.78;;;2.20;;
11135;SDS011;5622;50.840;4.948;2023-08-21T13:22:58;4.05;;;1.90;;
11135;SDS011;5622;50.840;4.948;2023-08-21T13:26:03;2.20;;;1.83;;
11135;SDS011;5622;50.840;4.948;2023-08-21T13:29:11;2.95;;;1.80;;
11135;SDS011;5622;50.840;4.948;2023-08-21T13:32:07;4.43;;;2.15;;
11135;SDS011;5622;50.840;4.948;2023-08-21T13:34:50;4.38;;;2.13;;
11135;SDS011;5622;50.840;4.948;2023-08-21T13:37:42;3.13;;;2.10;;
11135;SDS011;5622;50.840;4.948;2023-08-21T13:40:41;6.13;;;1.98;;
11135;SDS011;5622;50.840;4.948;2023-08-21T13:43:34;5.93;;;1.90;;
11135;SDS011;5622;50.840;4.948;2023-08-21T13:49:22;4.95;;;2.38;;
11135;SDS011;5622;50.840;4.948;2023-08-21T13:52:20;4.15;;;2.05;;
